Time;durP1;ratioP1;P1;durP2;ratioP2;P2;SDS_P1;SDS_P2;PMS_P1;PMS_P2;Temp;Humidity;BMP_temperature;BMP_pressure;BME280_temperature;BME280_humidity;BME280_pressure;Samples;Min_cycle;Max_cycle;Signal;HPM_P1;HPM_P2
2023/05/15 00:00:30;;;;;;;9.85;3.40;;;21.90;50.90;;;;;;4984573;28;20484;-75
2023/05/15 00:02:56;;;;;;;12.75;4.03;;;21.90;50.90;;;;;;4974910;28;20038;-75
2023/05/15 00:05:22;;;;;;;7.30;3.65;;;21.90;50.70;;;;;;4991810;28;20461;-75
2023/05/15 00:07:48;;;;;;;10.38;3.70;;;21.90;50.80;;;;;;4991191;28;20512;-75
2023/05/15 00:10:13;;;;;;;7.03;3.83;;;21.90;50.60;;;;;;4991394;28;20057;-75
2023/05/15 00:12:39;;;;;;;7.30;3.75;;;22.00;50.70;;;;;;4990971;28;20018;-75
2023/05/15 00:15:06;;;;;;;7.43;3.40;;;22.00;50.50;;;;;;4990768;28;20030;-75
2023/05/15 00:17:31;;;;;;;6.80;3.67;;;22.00;50.70;;;;;;4991062;28;20061;-75
2023/05/15 00:19:58;;;;;;;6.03;3.65;;;21.90;50.70;;;;;;4974316;28;20066;-75
2023/05/15 00:22:25;;;;;;;8.07;3.47;;;21.90;50.70;;;;;;5000390;28;20082;-75
2023/05/15 00:24:50;;;;;;;6.43;3.85;;;21.90;50.70;;;;;;5004328;28;20033;-75
2023/05/15 00:27:16;;;;;;;8.00;3.50;;;21.90;50.80;;;;;;4998515;28;20065;-75
2023/05/15 00:29:42;;;;;;;7.95;4.10;;;21.90;50.70;;;;;;4991556;28;20097;-74
2023/05/15 00:32:08;;;;;;;6.40;3.65;;;21.90;50.70;;;;;;4988610;28;20416;-74
2023/05/15 00:34:34;;;;;;;7.20;3.58;;;21.90;50.70;;;;;;4957460;28;20032;-75
2023/05/15 00:37:00;;;;;;;6.47;3.90;;;21.90;50.50;;;;;;4973621;28;20086;-75
2023/05/15 00:39:25;;;;;;;6.45;3.88;;;21.90;50.70;;;;;;4958190;28;20496;-75
2023/05/15 00:41:53;;;;;;;7.40;3.85;;;21.90;50.70;;;;;;4966828;28;20030;-75
2023/05/15 00:44:19;;;;;;;10.80;3.50;;;22.00;50.80;;;;;;4993338;28;20034;-75
2023/05/15 00:46:47;;;;;;;4.90;3.30;;;21.90;50.80;;;;;;4980889;28;20077;-75
2023/05/15 00:49:14;;;;;;;8.25;3.78;;;21.90;50.80;;;;;;4980883;28;20500;-74
2023/05/15 00:51:43;;;;;;;9.00;3.78;;;22.00;50.80;;;;;;4991676;28;20488;-74
2023/05/15 00:54:10;;;;;;;6.18;3.67;;;21.90;50.80;;;;;;4982013;28;20104;-75
2023/05/15 00:56:36;;;;;;;7.63;3.60;;;21.90;50.80;;;;;;4984202;28;20057;-75
2023/05/15 00:59:03;;;;;;;5.78;3.40;;;21.90;50.90;;;;;;4991843;28;20073;-76
2023/05/15 01:01:33;;;;;;;5.70;3.42;;;21.90;50.80;;;;;;4999420;28;20038;-75
2023/05/15 01:04:03;;;;;;;6.50;3.60;;;21.90;50.80;;;;;;5011731;28;20061;-75
2023/05/15 01:06:30;;;;;;;7.10;3.95;;;21.90;50.70;;;;;;5011811;28;20041;-75
2023/05/15 01:08:58;;;;;;;6.53;3.85;;;21.90;50.40;;;;;;4959191;28;20023;-75
2023/05/15 01:11:26;;;;;;;8.15;3.35;;;21.90;50.50;;;;;;4999014;28;20404;-75
2023/05/15 01:13:52;;;;;;;7.88;3.97;;;22.00;50.30;;;;;;4967366;28;20037;-75
2023/05/15 01:16:20;;;;;;;6.60;3.38;;;22.00;50.60;;;;;;4976998;28;20030;-75
2023/05/15 01:18:46;;;;;;;7.22;3.80;;;21.90;50.70;;;;;;4990070;28;20034;-75
2023/05/15 01:21:15;;;;;;;7.53;3.70;;;21.90;50.70;;;;;;4973354;28;20031;-75
2023/05/15 01:24:01;;;;;;;8.27;3.45;;;21.90;50.80;;;;;;4974529;28;20041;-75
2023/05/15 01:27:04;;;;;;;4.80;3.38;;;21.90;50.70;;;;;;4986638;28;20034;-75
2023/05/15 01:29:50;;;;;;;7.68;3.50;;;21.90;50.70;;;;;;4980221;28;20030;-75
2023/05/15 01:32:36;;;;;;;5.50;3.70;;;21.90;50.80;;;;;;4966603;28;20026;-75
2023/05/15 01:35:44;;;;;;;7.32;3.47;;;21.90;50.80;;;;;;4960792;28;20121;-75
2023/05/15 01:38:24;;;;;;;5.90;3.38;;;21.90;50.80;;;;;;4982729;28;20088;-75
2023/05/15 01:41:13;;;;;;;6.80;3.95;;;21.90;50.80;;;;;;4964452;28;20129;-76
2023/05/15 01:43:42;;;;;;;8.00;3.63;;;21.90;50.90;;;;;;4955303;28;20080;-75
2023/05/15 01:46:11;;;;;;;6.97;3.67;;;21.90;50.90;;;;;;4983931;28;20105;-75
2023/05/15 01:48:39;;;;;;;5.15;3.33;;;21.90;51.00;;;;;;4992513;28;20100;-75
2023/05/15 01:51:08;;;;;;;7.05;3.28;;;21.90;50.90;;;;;;4945224;28;20042;-74
2023/05/15 01:53:36;;;;;;;6.55;3.60;;;21.90;50.90;;;;;;4979125;28;20018;-74
2023/05/15 01:56:04;;;;;;;6.55;3.75;;;21.90;50.90;;;;;;4993630;28;20113;-74
2023/05/15 01:58:32;;;;;;;10.90;4.03;;;21.90;50.90;;;;;;4989078;28;20496;-74
2023/05/15 02:00:59;;;;;;;7.97;3.50;;;22.00;50.90;;;;;;4961351;28;20057;-74
2023/05/15 02:03:25;;;;;;;6.72;3.38;;;21.90;50.70;;;;;;4985050;28;20053;-74
2023/05/15 02:05:55;;;;;;;8.38;4.10;;;21.90;50.80;;;;;;4974898;28;20031;-74
2023/05/15 02:08:24;;;;;;;7.30;3.70;;;21.90;50.60;;;;;;4970803;28;20033;-75
2023/05/15 02:10:51;;;;;;;6.20;3.45;;;21.90;50.70;;;;;;4961438;28;20496;-74
2023/05/15 02:13:18;;;;;;;5.15;3.30;;;21.90;50.90;;;;;;4979465;28;20029;-75
2023/05/15 02:15:45;;;;;;;6.35;3.90;;;21.90;50.80;;;;;;4993159;28;20069;-74
2023/05/15 02:18:13;;;;;;;8.43;3.95;;;21.90;50.70;;;;;;4974113;28;20030;-75
2023/05/15 02:20:38;;;;;;;8.00;3.45;;;21.90;50.80;;;;;;4976556;28;20044;-74
2023/05/15 02:23:04;;;;;;;5.85;3.70;;;21.90;50.90;;;;;;4978842;28;20287;-74
2023/05/15 02:25:45;;;;;;;9.75;3.83;;;21.90;51.10;;;;;;4976708;28;20037;-74
2023/05/15 02:28:19;;;;;;;6.10;3.55;;;21.90;51.00;;;;;;4973073;28;20404;-75
2023/05/15 02:30:54;;;;;;;6.47;3.58;;;21.90;51.00;;;;;;4994647;28;20057;-74
2023/05/15 02:33:44;;;;;;;5.95;3.63;;;21.90;51.10;;;;;;4993891;28;20081;-75
2023/05/15 02:36:15;;;;;;;6.07;3.97;;;21.90;51.20;;;;;;4971019;28;20089;-74
2023/05/15 02:38:48;;;;;;;8.77;3.65;;;21.90;51.10;;;;;;4959325;28;20547;-74
2023/05/15 02:41:15;;;;;;;5.20;3.28;;;21.90;51.10;;;;;;4948491;28;20723;-74
2023/05/15 02:43:42;;;;;;;5.97;3.55;;;21.90;51.10;;;;;;4984301;28;20026;-74
2023/05/15 02:46:10;;;;;;;5.18;3.80;;;21.90;51.00;;;;;;4977223;28;20407;-74
2023/05/15 02:48:41;;;;;;;6.80;3.53;;;21.90;51.00;;;;;;5003677;28;20056;-74
2023/05/15 02:51:07;;;;;;;6.15;3.42;;;21.90;51.10;;;;;;4982243;28;20037;-74
2023/05/15 02:53:38;;;;;;;5.45;3.72;;;21.80;50.90;;;;;;4955990;28;20031;-74
2023/05/15 02:56:04;;;;;;;5.90;3.22;;;21.90;51.10;;;;;;4993279;28;20069;-74
2023/05/15 02:58:30;;;;;;;5.97;3.15;;;21.90;51.10;;;;;;4971527;28;20446;-75
2023/05/15 03:00:55;;;;;;;8.10;3.70;;;21.90;51.10;;;;;;4974757;28;20025;-74
2023/05/15 03:03:21;;;;;;;6.20;3.78;;;21.90;50.50;;;;;;4981651;28;20100;-74
2023/05/15 03:05:47;;;;;;;6.20;3.67;;;21.90;51.00;;;;;;4993340;28;20018;-74
2023/05/15 03:08:14;;;;;;;7.32;3.85;;;21.90;50.70;;;;;;4991541;28;20022;-74
2023/05/15 03:10:39;;;;;;;5.60;3.47;;;21.90;51.40;;;;;;4992109;28;20528;-74
2023/05/15 03:13:05;;;;;;;5.00;3.33;;;21.90;50.90;;;;;;4994702;28;20108;-75
2023/05/15 03:15:31;;;;;;;7.00;3.65;;;21.90;50.80;;;;;;4992925;28;20385;-75
2023/05/15 03:17:56;;;;;;;8.90;4.15;;;21.90;51.00;;;;;;4971614;28;20038;-74
2023/05/15 03:20:22;;;;;;;6.30;4.00;;;21.90;51.10;;;;;;4993787;28;20038;-74
2023/05/15 03:22:48;;;;;;;6.00;3.97;;;21.90;51.20;;;;;;4978647;28;20022;-74
2023/05/15 03:25:15;;;;;;;4.57;3.40;;;21.90;51.10;;;;;;4978130;28;20389;-74
2023/05/15 03:27:40;;;;;;;8.93;3.78;;;21.90;51.30;;;;;;4991338;28;20030;-75
2023/05/15 03:30:07;;;;;;;8.80;3.80;;;21.80;51.10;;;;;;4976123;28;20444;-75
2023/05/15 03:32:33;;;;;;;7.55;4.10;;;21.90;51.20;;;;;;4988416;28;20101;-75
2023/05/15 03:34:58;;;;;;;7.53;3.60;;;21.90;51.20;;;;;;4978828;28;20109;-75
2023/05/15 03:37:24;;;;;;;8.23;4.30;;;21.80;51.30;;;;;;4997254;28;20030;-74
2023/05/15 03:39:50;;;;;;;7.85;4.10;;;21.80;51.30;;;;;;4997923;28;20109;-75
2023/05/15 03:42:22;;;;;;;9.32;3.67;;;21.90;51.30;;;;;;4978865;28;20031;-75
2023/05/15 03:44:49;;;;;;;7.88;3.53;;;21.80;51.30;;;;;;4990801;28;20117;-75
2023/05/15 03:47:15;;;;;;;5.65;3.40;;;21.80;51.30;;;;;;4990961;28;20030;-74
2023/05/15 03:49:41;;;;;;;5.47;3.58;;;21.90;51.50;;;;;;4991476;28;20022;-75
2023/05/15 03:52:08;;;;;;;7.85;3.30;;;21.90;51.40;;;;;;4977690;28;20034;-75
2023/05/15 03:54:34;;;;;;;5.72;3.50;;;21.80;51.40;;;;;;4972675;28;20088;-74
2023/05/15 03:57:00;;;;;;;7.07;4.00;;;21.80;51.40;;;;;;4991870;28;20057;-74
2023/05/15 03:59:26;;;;;;;8.38;3.90;;;21.90;51.40;;;;;;4981713;28;20065;-74
2023/05/15 04:01:52;;;;;;;5.53;3.58;;;21.90;51.50;;;;;;4992495;28;20464;-74
2023/05/15 04:04:18;;;;;;;7.47;4.28;;;21.80;51.50;;;;;;4979443;28;20113;-74
2023/05/15 04:06:43;;;;;;;7.07;4.22;;;21.90;51.40;;;;;;4993926;28;20435;-74
2023/05/15 04:09:09;;;;;;;7.88;4.53;;;21.90;51.50;;;;;;4975708;28;20420;-74
2023/05/15 04:11:35;;;;;;;6.65;4.18;;;21.90;51.40;;;;;;4991725;28;20077;-74
2023/05/15 04:14:01;;;;;;;6.53;3.88;;;21.90;51.50;;;;;;4980896;28;20026;-74
2023/05/15 04:16:27;;;;;;;8.32;4.00;;;21.90;51.40;;;;;;4991122;28;20033;-74
2023/05/15 04:18:55;;;;;;;6.68;4.07;;;21.90;51.50;;;;;;4990585;28;20035;-75
2023/05/15 04:21:21;;;;;;;9.73;4.43;;;21.90;51.40;;;;;;4990727;28;20036;-74
2023/05/15 04:23:47;;;;;;;7.78;4.00;;;21.90;51.40;;;;;;4992094;28;20041;-74
2023/05/15 04:26:12;;;;;;;11.25;4.65;;;21.90;51.50;;;;;;4990841;28;20092;-75
2023/05/15 04:28:38;;;;;;;7.60;4.20;;;21.80;51.40;;;;;;4991225;28;20449;-75
2023/05/15 04:31:04;;;;;;;8.13;4.05;;;21.90;51.50;;;;;;4991955;28;20026;-74
2023/05/15 04:33:30;;;;;;;6.03;4.10;;;21.90;51.50;;;;;;4990710;28;20026;-74
2023/05/15 04:35:55;;;;;;;8.07;4.15;;;21.90;51.50;;;;;;4989664;28;20479;-74
2023/05/15 04:38:21;;;;;;;6.93;4.25;;;21.90;51.50;;;;;;4996855;28;20033;-75
2023/05/15 04:40:47;;;;;;;5.80;3.85;;;21.90;51.60;;;;;;4975513;28;20037;-75
2023/05/15 04:43:13;;;;;;;10.43;4.20;;;21.90;51.50;;;;;;4992539;28;20137;-75
2023/05/15 04:45:38;;;;;;;10.77;4.70;;;21.90;51.60;;;;;;4989259;28;20034;-74
2023/05/15 04:48:05;;;;;;;9.55;4.20;;;21.80;51.50;;;;;;4990884;28;20038;-74
2023/05/15 04:50:31;;;;;;;7.43;4.40;;;21.80;51.40;;;;;;4974097;28;20514;-74
2023/05/15 04:52:56;;;;;;;7.00;4.05;;;21.90;51.60;;;;;;4992285;28;20022;-74
2023/05/15 04:55:22;;;;;;;7.78;4.55;;;21.90;51.60;;;;;;4975457;28;20133;-74
2023/05/15 04:57:48;;;;;;;9.52;5.28;;;21.80;51.50;;;;;;4998097;28;20450;-74
2023/05/15 05:00:15;;;;;;;13.93;5.13;;;21.80;51.50;;;;;;4991739;28;20026;-74
2023/05/15 05:02:44;;;;;;;8.32;5.22;;;21.90;51.60;;;;;;4967893;28;20130;-74
2023/05/15 05:05:09;;;;;;;9.50;4.60;;;21.90;51.60;;;;;;4990057;28;20388;-76
2023/05/15 05:07:35;;;;;;;8.30;5.00;;;21.90;51.60;;;;;;4972956;28;20031;-75
2023/05/15 05:10:03;;;;;;;7.57;4.75;;;21.90;51.60;;;;;;4994209;28;20037;-75
2023/05/15 05:12:28;;;;;;;10.07;5.13;;;21.90;51.50;;;;;;4972933;28;20373;-74
2023/05/15 05:14:55;;;;;;;9.93;5.43;;;21.90;51.50;;;;;;4991054;28;20029;-74
2023/05/15 05:17:21;;;;;;;7.88;4.40;;;21.90;51.50;;;;;;4990704;28;20460;-75
2023/05/15 05:19:47;;;;;;;16.20;4.93;;;21.80;51.50;;;;;;4990553;28;20447;-74
2023/05/15 05:22:13;;;;;;;10.65;4.95;;;21.90;51.90;;;;;;4990245;28;20030;-74
2023/05/15 05:24:39;;;;;;;20.25;5.10;;;21.90;51.70;;;;;;4985402;28;20485;-75
2023/05/15 05:27:05;;;;;;;10.13;4.70;;;21.90;51.60;;;;;;4987988;28;20038;-76
2023/05/15 05:29:31;;;;;;;15.73;5.05;;;21.90;51.40;;;;;;4988876;28;20026;-76
2023/05/15 05:31:57;;;;;;;11.25;5.60;;;21.90;51.50;;;;;;4972603;28;20027;-76
2023/05/15 05:34:23;;;;;;;11.30;5.05;;;21.90;51.70;;;;;;4970146;28;20030;-75
2023/05/15 05:36:49;;;;;;;10.75;5.18;;;21.90;51.60;;;;;;4988241;28;20141;-75
2023/05/15 05:39:16;;;;;;;12.77;5.55;;;22.00;51.70;;;;;;4970615;28;20037;-75
2023/05/15 05:41:42;;;;;;;13.10;5.03;;;21.90;51.50;;;;;;4956063;28;20381;-76
2023/05/15 05:44:08;;;;;;;9.13;5.22;;;21.90;51.40;;;;;;4973799;28;20042;-75
2023/05/15 05:46:34;;;;;;;15.82;5.05;;;21.90;51.90;;;;;;4970920;28;20493;-75
2023/05/15 05:49:00;;;;;;;10.40;5.38;;;22.00;52.00;;;;;;4988827;28;20097;-76
2023/05/15 05:51:25;;;;;;;11.73;4.97;;;21.90;51.30;;;;;;4970918;28;20026;-76
2023/05/15 05:53:51;;;;;;;9.93;5.38;;;21.90;51.20;;;;;;4987603;28;20037;-76
2023/05/15 05:56:17;;;;;;;12.52;5.10;;;22.00;51.30;;;;;;4990988;28;20045;-76
2023/05/15 05:58:43;;;;;;;10.05;5.32;;;21.90;51.30;;;;;;4989050;28;20035;-76
2023/05/15 06:01:09;;;;;;;8.43;4.88;;;21.90;51.20;;;;;;4988501;28;20412;-76
2023/05/15 06:03:35;;;;;;;9.68;5.13;;;21.90;51.20;;;;;;4987774;28;20034;-75
2023/05/15 06:06:01;;;;;;;10.45;5.30;;;22.00;51.20;;;;;;4989074;28;20027;-74
2023/05/15 06:08:28;;;;;;;11.50;4.82;;;22.00;51.60;;;;;;4986946;28;20027;-74
2023/05/15 06:10:54;;;;;;;11.90;5.18;;;22.00;51.70;;;;;;4985291;28;20030;-75
2023/05/15 06:13:21;;;;;;;9.90;4.68;;;22.00;51.80;;;;;;4987529;28;20034;-74
2023/05/15 06:15:46;;;;;;;11.68;5.07;;;22.00;52.00;;;;;;4971918;28;20033;-74
2023/05/15 06:18:12;;;;;;;12.13;5.20;;;22.00;51.90;;;;;;4988121;28;20026;-74
2023/05/15 06:20:38;;;;;;;9.55;4.78;;;22.00;51.80;;;;;;4988739;28;20042;-73
2023/05/15 06:23:04;;;;;;;10.38;4.82;;;22.00;51.90;;;;;;4987391;28;20077;-74
2023/05/15 06:25:30;;;;;;;12.15;5.28;;;21.90;52.00;;;;;;4970991;28;20042;-73
2023/05/15 06:27:56;;;;;;;10.35;4.60;;;21.90;51.80;;;;;;4988166;28;20065;-75
2023/05/15 06:30:22;;;;;;;8.15;4.53;;;21.90;51.90;;;;;;4971640;28;20285;-75
2023/05/15 06:32:47;;;;;;;10.73;5.18;;;21.90;51.80;;;;;;4973275;28;20078;-75
2023/05/15 06:35:13;;;;;;;9.85;4.72;;;21.90;52.00;;;;;;4976944;28;20065;-75
2023/05/15 06:37:49;;;;;;;14.02;4.90;;;21.90;51.70;;;;;;4968304;28;20042;-75
2023/05/15 06:40:15;;;;;;;8.70;4.90;;;21.90;52.20;;;;;;4967536;28;20030;-76
2023/05/15 06:42:41;;;;;;;9.88;4.95;;;22.00;52.10;;;;;;4990853;28;20038;-76
2023/05/15 06:45:07;;;;;;;10.77;4.57;;;22.00;52.00;;;;;;5001535;28;20051;-74
2023/05/15 06:47:33;;;;;;;9.75;5.07;;;22.00;51.70;;;;;;4990935;28;20041;-75
2023/05/15 06:49:59;;;;;;;7.63;4.85;;;22.00;51.60;;;;;;4992865;28;20061;-74
2023/05/15 06:52:24;;;;;;;9.82;4.90;;;22.00;51.70;;;;;;4974809;28;20026;-75
2023/05/15 06:54:50;;;;;;;11.18;4.72;;;22.00;51.60;;;;;;4992949;28;20498;-75
2023/05/15 06:57:17;;;;;;;8.77;4.82;;;22.00;51.60;;;;;;4993767;28;20041;-75
2023/05/15 06:59:43;;;;;;;8.60;4.75;;;22.00;51.40;;;;;;4992021;28;20026;-75
2023/05/15 07:02:09;;;;;;;11.18;5.22;;;22.00;51.60;;;;;;4997039;28;20415;-75
2023/05/15 07:04:34;;;;;;;12.10;5.10;;;22.00;51.60;;;;;;4994405;28;20050;-75
2023/05/15 07:07:00;;;;;;;16.10;5.25;;;22.10;51.90;;;;;;4991771;28;20036;-75
2023/05/15 07:09:26;;;;;;;15.93;4.88;;;22.00;51.50;;;;;;4981915;28;20030;-75
2023/05/15 07:11:52;;;;;;;11.13;4.85;;;22.10;51.40;;;;;;5003736;28;20053;-75
2023/05/15 07:14:18;;;;;;;8.73;4.60;;;22.10;51.30;;;;;;4999380;28;20413;-75
2023/05/15 07:16:45;;;;;;;11.65;4.78;;;22.00;51.40;;;;;;4987363;28;20030;-75
2023/05/15 07:19:12;;;;;;;10.75;4.85;;;22.00;51.00;;;;;;4975704;28;20037;-76
2023/05/15 07:21:41;;;;;;;9.35;4.72;;;22.10;51.20;;;;;;4953311;28;20034;-76
2023/05/15 07:24:07;;;;;;;11.63;4.63;;;22.10;51.20;;;;;;4999072;28;20046;-75
2023/05/15 07:26:33;;;;;;;20.05;4.85;;;22.10;51.20;;;;;;4994078;28;20065;-75
2023/05/15 07:28:58;;;;;;;12.68;4.68;;;22.10;51.50;;;;;;4978861;28;20038;-75
2023/05/15 07:31:24;;;;;;;13.07;4.75;;;22.10;51.20;;;;;;5000137;28;20030;-75
2023/05/15 07:33:50;;;;;;;11.00;4.72;;;22.10;51.50;;;;;;4976720;28;20042;-74
2023/05/15 07:36:16;;;;;;;15.50;4.88;;;22.10;51.40;;;;;;4974353;28;20042;-74
2023/05/15 07:38:41;;;;;;;10.70;4.63;;;22.10;51.20;;;;;;4978759;28;20045;-74
2023/05/15 07:41:07;;;;;;;10.40;4.50;;;22.10;51.10;;;;;;5001294;28;20034;-74
2023/05/15 07:43:33;;;;;;;9.77;4.38;;;22.10;51.30;;;;;;4981096;28;20034;-75
2023/05/15 07:45:59;;;;;;;12.35;4.47;;;22.10;51.10;;;;;;4993372;28;20484;-74
2023/05/15 07:48:25;;;;;;;9.70;4.80;;;22.10;51.10;;;;;;4974949;28;20112;-74
2023/05/15 07:50:51;;;;;;;15.18;4.88;;;22.10;51.10;;;;;;4990846;28;20184;-75
2023/05/15 07:53:17;;;;;;;12.73;4.43;;;22.10;50.80;;;;;;4973742;28;20547;-76
2023/05/15 07:55:43;;;;;;;8.30;4.13;;;22.10;50.60;;;;;;4992093;28;20106;-76
2023/05/15 07:58:08;;;;;;;21.88;4.38;;;22.10;50.70;;;;;;4992734;28;20041;-76
2023/05/15 08:00:35;;;;;;;21.92;5.47;;;22.10;51.00;;;;;;4993760;28;20030;-75
2023/05/15 08:03:01;;;;;;;11.93;4.68;;;22.10;54.20;;;;;;4997059;28;20045;-75
2023/05/15 08:05:28;;;;;;;16.23;5.18;;;22.10;50.30;;;;;;4964655;28;20041;-76
2023/05/15 08:07:55;;;;;;;14.07;4.80;;;22.20;51.60;;;;;;4975220;28;20034;-76
2023/05/15 08:10:21;;;;;;;11.73;5.03;;;22.20;52.40;;;;;;4985908;28;20026;-76
2023/05/15 08:12:47;;;;;;;15.20;5.03;;;22.20;50.70;;;;;;5004462;28;20037;-76
2023/05/15 08:15:16;;;;;;;26.75;6.13;;;22.20;51.90;;;;;;4981765;28;20026;-76
2023/05/15 08:17:42;;;;;;;16.90;4.85;;;22.20;55.50;;;;;;4983507;28;20030;-76
2023/05/15 08:20:09;;;;;;;20.10;5.80;;;22.10;54.90;;;;;;4991091;28;20382;-76
2023/05/15 08:22:35;;;;;;;28.55;6.32;;;22.20;59.00;;;;;;4992577;28;20097;-76
2023/05/15 08:25:02;;;;;;;22.05;5.82;;;22.20;55.10;;;;;;4991727;28;20037;-76
2023/05/15 08:27:28;;;;;;;21.38;5.60;;;22.20;53.90;;;;;;4973375;28;20440;-76
2023/05/15 08:29:54;;;;;;;28.40;6.40;;;22.20;54.00;;;;;;4989048;28;20030;-77
2023/05/15 08:32:21;;;;;;;23.30;6.05;;;22.20;55.90;;;;;;4995806;28;20022;-75
2023/05/15 08:34:46;;;;;;;17.65;5.72;;;22.20;55.40;;;;;;5003889;28;20447;-76
2023/05/15 08:37:13;;;;;;;21.92;5.90;;;22.20;56.50;;;;;;4977146;28;20038;-76
2023/05/15 08:39:38;;;;;;;16.10;5.35;;;22.10;56.90;;;;;;4979867;28;20027;-75
2023/05/15 08:42:23;;;;;;;30.17;5.95;;;22.10;56.70;;;;;;4990922;28;20109;-75
2023/05/15 08:44:49;;;;;;;20.70;5.95;;;22.20;57.00;;;;;;4982419;28;20510;-75
2023/05/15 08:47:18;;;;;;;12.80;5.55;;;22.10;57.40;;;;;;4991928;28;20026;-76
2023/05/15 08:50:03;;;;;;;20.77;5.50;;;22.10;57.80;;;;;;4993193;28;20049;-75
2023/05/15 08:52:30;;;;;;;14.60;5.78;;;22.10;58.10;;;;;;5003791;28;20315;-75
2023/05/15 08:54:57;;;;;;;26.20;5.65;;;22.10;57.90;;;;;;4993775;28;20368;-75
2023/05/15 08:57:24;;;;;;;17.67;5.40;;;22.10;58.00;;;;;;5011476;28;20037;-75
2023/05/15 08:59:51;;;;;;;20.25;5.45;;;22.00;57.70;;;;;;5002618;28;20034;-75
2023/05/15 09:02:26;;;;;;;14.35;5.13;;;22.00;57.40;;;;;;4973122;28;20028;-75
2023/05/15 09:04:52;;;;;;;11.80;4.65;;;22.00;57.30;;;;;;4999081;28;20039;-74
2023/05/15 09:07:19;;;;;;;12.50;5.25;;;22.00;57.60;;;;;;4991745;28;20030;-75
2023/05/15 09:09:46;;;;;;;15.43;5.43;;;22.00;56.50;;;;;;4993143;28;20030;-74
2023/05/15 09:12:16;;;;;;;11.52;5.00;;;22.10;55.90;;;;;;4969149;28;20034;-75
2023/05/15 09:14:43;;;;;;;11.52;4.40;;;22.00;56.20;;;;;;5003462;28;20488;-75
2023/05/15 09:17:10;;;;;;;12.82;5.10;;;22.10;55.60;;;;;;4977638;28;20164;-75
2023/05/15 09:19:39;;;;;;;15.82;4.97;;;22.10;56.10;;;;;;4987493;28;20041;-76
2023/05/15 09:22:16;;;;;;;12.90;4.78;;;22.00;55.60;;;;;;5003258;28;20519;-75
2023/05/15 09:24:43;;;;;;;14.88;5.35;;;22.10;55.80;;;;;;5003058;28;20057;-76
2023/05/15 09:27:10;;;;;;;17.23;5.18;;;22.10;55.30;;;;;;4987708;28;20592;-76
2023/05/15 09:29:37;;;;;;;14.95;5.00;;;22.10;55.70;;;;;;4990344;28;20110;-76
2023/05/15 09:32:04;;;;;;;12.13;5.10;;;22.10;55.20;;;;;;4981942;28;20031;-76
2023/05/15 09:34:33;;;;;;;16.10;4.95;;;22.10;54.90;;;;;;4998620;28;20058;-75
2023/05/15 09:37:03;;;;;;;10.05;4.63;;;22.10;54.70;;;;;;4987856;28;20639;-75
2023/05/15 09:39:28;;;;;;;13.25;4.40;;;22.10;54.70;;;;;;4988664;28;20373;-76
2023/05/15 09:42:05;;;;;;;17.63;4.97;;;22.10;54.60;;;;;;4991238;28;20033;-75
2023/05/15 09:44:32;;;;;;;12.15;4.65;;;22.10;54.20;;;;;;4989639;28;20034;-75
2023/05/15 09:46:59;;;;;;;10.90;4.75;;;22.20;54.00;;;;;;4991255;28;20109;-75
2023/05/15 09:49:28;;;;;;;13.07;4.40;;;22.10;54.00;;;;;;4988662;28;20105;-75
2023/05/15 09:51:58;;;;;;;12.77;5.07;;;22.10;53.90;;;;;;4992857;28;20033;-75
2023/05/15 09:54:28;;;;;;;;;;;22.10;53.60;;;;;;4991570;28;20019;-76
2023/05/15 09:56:55;;;;;;;13.77;5.65;;;22.10;53.50;;;;;;4974475;28;19910;-76
2023/05/15 09:59:21;;;;;;;9.75;4.50;;;22.10;53.30;;;;;;4981475;28;20452;-76
2023/05/15 10:01:53;;;;;;;14.02;5.20;;;22.10;53.30;;;;;;5011165;28;20105;-76
2023/05/15 10:04:18;;;;;;;9.80;4.45;;;22.10;53.00;;;;;;4993683;28;20034;-76
2023/05/15 10:06:46;;;;;;;11.32;4.70;;;22.10;52.70;;;;;;5003590;28;20030;-76
2023/05/15 10:09:15;;;;;;;11.90;4.60;;;22.10;52.60;;;;;;5006418;28;20037;-76
2023/05/15 10:11:43;;;;;;;18.77;4.95;;;22.10;52.50;;;;;;5014709;28;20057;-77
2023/05/15 10:14:12;;;;;;;14.32;4.63;;;22.10;52.60;;;;;;4992842;28;20132;-78
2023/05/15 10:16:39;;;;;;;9.63;4.40;;;22.10;53.10;;;;;;4982961;28;20022;-77
2023/05/15 10:19:06;;;;;;;11.98;4.63;;;22.10;53.60;;;;;;4981759;28;20109;-77
2023/05/15 10:21:34;;;;;;;15.52;4.57;;;22.10;53.60;;;;;;4951604;28;20041;-76
2023/05/15 10:24:01;;;;;;;11.88;4.53;;;22.10;53.20;;;;;;4980405;28;20392;-76
2023/05/15 10:26:37;;;;;;;10.88;4.50;;;22.10;53.40;;;;;;4976222;28;20030;-76
2023/05/15 10:29:09;;;;;;;12.85;4.43;;;22.10;53.40;;;;;;4974841;28;20038;-81
2023/05/15 10:31:35;;;;;;;9.23;4.60;;;22.10;53.50;;;;;;4941076;28;20035;-76
2023/05/15 10:34:05;;;;;;;19.70;4.75;;;22.10;53.20;;;;;;4975843;28;20022;-76
2023/05/15 10:36:32;;;;;;;12.07;5.45;;;22.10;53.10;;;;;;4994778;28;20036;-76
2023/05/15 10:39:04;;;;;;;11.48;5.38;;;22.10;53.10;;;;;;4983945;28;20132;-76
2023/05/15 10:41:34;;;;;;;11.52;4.68;;;22.10;53.20;;;;;;4994713;28;20030;-76
2023/05/15 10:44:01;;;;;;;13.10;5.03;;;22.10;53.50;;;;;;4994776;28;20082;-76
2023/05/15 10:46:29;;;;;;;11.00;4.60;;;22.10;53.70;;;;;;4984354;28;20117;-75
2023/05/15 10:48:56;;;;;;;9.52;4.82;;;22.10;53.70;;;;;;4984205;28;20041;-75
2023/05/15 10:51:30;;;;;;;9.35;4.50;;;22.00;53.60;;;;;;4976637;28;20488;-75
2023/05/15 10:53:56;;;;;;;12.65;4.70;;;22.00;53.50;;;;;;4996579;28;20076;-76
2023/05/15 10:56:28;;;;;;;9.40;4.25;;;22.00;53.30;;;;;;5010931;28;20076;-75
2023/05/15 10:58:54;;;;;;;10.57;4.63;;;22.00;53.50;;;;;;4998557;28;20022;-76
2023/05/15 11:01:27;;;;;;;9.23;4.60;;;22.00;53.50;;;;;;5013871;28;20029;-75
2023/05/15 11:04:16;;;;;;;10.43;4.80;;;22.00;53.40;;;;;;5013924;28;20373;-76
2023/05/15 11:06:46;;;;;;;12.87;4.80;;;22.00;53.40;;;;;;5008455;28;20041;-75
2023/05/15 11:09:21;;;;;;;8.82;4.63;;;22.00;53.30;;;;;;4991693;28;20026;-75
2023/05/15 11:11:55;;;;;;;9.90;4.55;;;22.10;53.30;;;;;;5013810;28;20026;-76
2023/05/15 11:14:25;;;;;;;7.28;4.35;;;22.10;53.30;;;;;;5013760;28;20061;-75
2023/05/15 11:16:51;;;;;;;;;;;22.10;53.30;;;;;;4974182;28;20034;-75
2023/05/15 11:19:32;;;;;;;11.63;4.53;;;22.00;53.30;;;;;;4991624;28;19917;-75
2023/05/15 11:22:08;;;;;;;8.85;4.40;;;22.10;53.10;;;;;;5013793;28;20268;-76
2023/05/15 11:24:52;;;;;;;10.48;4.55;;;22.10;53.10;;;;;;5013559;28;20026;-76
2023/05/15 11:27:28;;;;;;;13.88;4.78;;;22.10;53.20;;;;;;5004091;28;20083;-75
2023/05/15 11:30:11;;;;;;;8.25;4.30;;;22.10;53.20;;;;;;4974625;28;20097;-75
2023/05/15 11:32:45;;;;;;;9.65;4.35;;;22.10;53.20;;;;;;4974386;28;20027;-75
2023/05/15 11:35:28;;;;;;;8.18;4.15;;;22.00;53.10;;;;;;4974327;28;20027;-75
2023/05/15 11:37:55;;;;;;;10.13;4.72;;;22.10;53.00;;;;;;5000108;28;20044;-75
2023/05/15 11:40:28;;;;;;;9.45;4.10;;;22.10;53.10;;;;;;5001523;28;20081;-75
2023/05/15 11:43:16;;;;;;;7.63;4.20;;;22.10;53.00;;;;;;4974205;28;20030;-75
2023/05/15 11:45:45;;;;;;;10.65;4.18;;;22.10;53.00;;;;;;4963281;28;20484;-76
2023/05/15 11:48:17;;;;;;;9.65;4.50;;;22.10;52.90;;;;;;5004393;28;20425;-76
2023/05/15 11:50:45;;;;;;;8.27;4.18;;;22.10;52.90;;;;;;5013053;28;20084;-76
2023/05/15 11:53:12;;;;;;;14.50;4.53;;;22.10;52.70;;;;;;5012917;28;20026;-75
2023/05/15 11:55:42;;;;;;;8.98;4.15;;;22.10;52.80;;;;;;4991829;28;20061;-76
2023/05/15 11:58:18;;;;;;;9.80;4.47;;;22.10;52.70;;;;;;5002920;28;20408;-76
2023/05/15 12:00:48;;;;;;;6.78;4.40;;;22.10;52.70;;;;;;5004644;28;20029;-75
2023/05/15 12:03:26;;;;;;;9.65;3.95;;;22.10;52.70;;;;;;5012861;28;20038;-75
2023/05/15 12:05:53;;;;;;;11.73;3.95;;;22.10;52.80;;;;;;5009579;28;20112;-75
2023/05/15 12:08:21;;;;;;;10.57;4.10;;;22.10;52.70;;;;;;4986815;28;20584;-75
2023/05/15 12:10:47;;;;;;;10.63;4.45;;;22.10;52.70;;;;;;4990248;28;20037;-75
2023/05/15 12:13:15;;;;;;;8.90;3.90;;;22.10;52.60;;;;;;5000530;28;20026;-75
2023/05/15 12:15:44;;;;;;;7.32;4.40;;;22.10;52.60;;;;;;4998241;28;20393;-75
2023/05/15 12:18:11;;;;;;;8.73;4.30;;;22.10;52.50;;;;;;5003950;28;20045;-76
2023/05/15 12:20:38;;;;;;;10.25;4.25;;;22.10;52.50;;;;;;5009351;28;20080;-75
2023/05/15 12:23:06;;;;;;;10.40;4.32;;;22.10;52.40;;;;;;5000211;28;20026;-74
2023/05/15 12:25:37;;;;;;;7.03;4.13;;;22.20;52.40;;;;;;4976095;28;20033;-75
2023/05/15 12:28:04;;;;;;;10.82;4.10;;;22.20;52.50;;;;;;4994497;28;20303;-75
2023/05/15 12:30:36;;;;;;;5.18;3.45;;;22.10;52.30;;;;;;4992531;28;20026;-76
2023/05/15 12:33:07;;;;;;;7.35;4.10;;;22.20;52.50;;;;;;4994278;28;20034;-76
2023/05/15 12:35:40;;;;;;;8.77;4.03;;;22.10;52.50;;;;;;5005030;28;20022;-77
2023/05/15 12:38:06;;;;;;;8.13;4.00;;;22.10;52.40;;;;;;4986088;28;20554;-76
2023/05/15 12:40:33;;;;;;;9.55;4.13;;;22.10;52.40;;;;;;5010807;28;20057;-76
2023/05/15 12:43:07;;;;;;;7.57;3.90;;;22.10;52.40;;;;;;4999908;28;20114;-76
2023/05/15 12:45:36;;;;;;;9.23;4.00;;;22.10;52.20;;;;;;4984133;28;20049;-76
2023/05/15 12:48:02;;;;;;;7.53;3.80;;;22.10;52.30;;;;;;5011530;28;20410;-76